sensor_id;sensor_type;location;lat;lon;timestamp;pressure;altitude;pressure_sealevel;temperature;humidity
66887;BME280;67239;51.680;5.976;2023-05-08T00:01:29;101894.66;;;14.78;100.00
66887;BME280;67239;51.680;5.976;2023-05-08T00:03:56;101895.56;;;14.78;100.00
66887;BME280;67239;51.680;5.976;2023-05-08T00:06:24;101888.53;;;14.75;100.00
66887;BME280;67239;51.680;5.976;2023-05-08T00:08:54;101895.59;;;14.77;100.00
66887;BME280;67239;51.680;5.976;2023-05-08T00:11:21;101883.22;;;14.75;100.00
66887;BME280;67239;51.680;5.976;2023-05-08T00:13:48;101891.16;;;14.77;100.00
66887;BME280;67239;51.680;5.976;2023-05-08T00:16:15;101883.19;;;14.77;100.00
66887;BME280;67239;51.680;5.976;2023-05-08T00:18:42;101886.78;;;14.76;100.00
66887;BME280;67239;51.680;5.976;2023-05-08T00:21:10;101883.28;;;14.74;100.00
66887;BME280;67239;51.680;5.976;2023-05-08T00:23:37;101883.28;;;14.74;100.00
66887;BME280;67239;51.680;5.976;2023-05-08T00:26:04;101882.44;;;14.73;100.00
66887;BME280;67239;51.680;5.976;2023-05-08T00:28:31;101887.75;;;14.73;100.00
66887;BME280;67239;51.680;5.976;2023-05-08T00:30:59;101886.84;;;14.73;100.00
66887;BME280;67239;51.680;5.976;2023-05-08T00:33:27;101883.38;;;14.71;100.00
66887;BME280;67239;51.680;5.976;2023-05-08T00:36:02;101889.56;;;14.71;100.00
66887;BME280;67239;51.680;5.976;2023-05-08T00:38:35;101884.31;;;14.70;100.00
66887;BME280;67239;51.680;5.976;2023-05-08T00:41:02;101889.63;;;14.70;100.00
66887;BME280;67239;51.680;5.976;2023-05-08T00:43:30;101894.09;;;14.66;100.00
66887;BME280;67239;51.680;5.976;2023-05-08T00:46:00;101888.78;;;14.68;100.00
66887;BME280;67239;51.680;5.976;2023-05-08T00:48:30;101893.25;;;14.66;100.00
66887;BME280;67239;51.680;5.976;2023-05-08T00:51:02;101899.41;;;14.66;100.00
66887;BME280;67239;51.680;5.976;2023-05-08T00:53:34;101884.44;;;14.64;100.00
66887;BME280;67239;51.680;5.976;2023-05-08T00:56:05;101885.34;;;14.64;100.00
66887;BME280;67239;51.680;5.976;2023-05-08T00:58:40;101888.94;;;14.62;100.00
66887;BME280;67239;51.680;5.976;2023-05-08T01:01:09;101888.91;;;14.63;100.00
66887;BME280;67239;51.680;5.976;2023-05-08T01:03:37;101887.19;;;14.60;100.00
66887;BME280;67239;51.680;5.976;2023-05-08T01:06:04;101884.53;;;14.60;100.00
66887;BME280;67239;51.680;5.976;2023-05-08T01:08:32;101884.66;;;14.57;100.00
66887;BME280;67239;51.680;5.976;2023-05-08T01:11:12;101877.53;;;14.58;100.00
66887;BME280;67239;51.680;5.976;2023-05-08T01:16:27;101882.38;;;14.45;100.00
66887;BME280;67239;51.680;5.976;2023-05-08T01:19:12;101884.28;;;14.40;100.00
66887;BME280;67239;51.680;5.976;2023-05-08T01:21:53;101883.63;;;14.33;100.00
66887;BME280;67239;51.680;5.976;2023-05-08T01:31:04;101878.88;;;14.13;100.00
66887;BME280;67239;51.680;5.976;2023-05-08T01:34:04;101878.16;;;14.08;100.00
66887;BME280;67239;51.680;5.976;2023-05-08T01:39:59;101890.72;;;14.01;100.00
66887;BME280;67239;51.680;5.976;2023-05-08T01:42:47;101884.50;;;14.01;100.00
66887;BME280;67239;51.680;5.976;2023-05-08T01:45:21;101894.25;;;14.00;100.00
66887;BME280;67239;51.680;5.976;2023-05-08T01:48:07;101897.81;;;13.99;100.00
66887;BME280;67239;51.680;5.976;2023-05-08T01:50:46;101896.09;;;13.98;100.00
66887;BME280;67239;51.680;5.976;2023-05-08T01:53:37;101894.34;;;13.97;100.00
66887;BME280;67239;51.680;5.976;2023-05-08T01:56:11;101891.75;;;13.95;100.00
66887;BME280;67239;51.680;5.976;2023-05-08T01:58:43;101898.88;;;13.93;100.00
66887;BME280;67239;51.680;5.976;2023-05-08T02:01:14;101897.13;;;13.92;100.00
66887;BME280;67239;51.680;5.976;2023-05-08T02:03:45;101905.03;;;13.94;100.00
66887;BME280;67239;51.680;5.976;2023-05-08T02:06:15;101909.41;;;13.95;100.00
66887;BME280;67239;51.680;5.976;2023-05-08T02:08:46;101899.81;;;13.91;100.00
66887;BME280;67239;51.680;5.976;2023-05-08T02:11:15;101894.66;;;13.85;100.00
66887;BME280;67239;51.680;5.976;2023-05-08T02:13:47;101896.53;;;13.81;100.00
66887;BME280;67239;51.680;5.976;2023-05-08T02:16:16;101900.09;;;13.81;100.00
66887;BME280;67239;51.680;5.976;2023-05-08T02:18:50;101910.69;;;13.80;100.00
66887;BME280;67239;51.680;5.976;2023-05-08T02:21:19;101901.97;;;13.76;100.00
66887;BME280;67239;51.680;5.976;2023-05-08T02:23:49;101911.72;;;13.74;100.00
66887;BME280;67239;51.680;5.976;2023-05-08T02:26:19;101915.31;;;13.73;100.00
66887;BME280;67239;51.680;5.976;2023-05-08T02:28:49;101904.75;;;13.72;100.00
66887;BME280;67239;51.680;5.976;2023-05-08T02:31:19;101906.53;;;13.71;100.00
66887;BME280;67239;51.680;5.976;2023-05-08T02:33:48;101912.66;;;13.73;100.00
66887;BME280;67239;51.680;5.976;2023-05-08T02:36:18;101912.69;;;13.72;100.00
66887;BME280;67239;51.680;5.976;2023-05-08T02:38:50;101911.84;;;13.70;100.00
66887;BME280;67239;51.680;5.976;2023-05-08T02:41:21;101910.09;;;13.69;100.00
66887;BME280;67239;51.680;5.976;2023-05-08T02:43:51;101909.31;;;13.65;100.00
66887;BME280;67239;51.680;5.976;2023-05-08T02:46:52;101908.47;;;13.64;100.00
66887;BME280;67239;51.680;5.976;2023-05-08T02:50:02;101919.22;;;13.58;100.00
66887;BME280;67239;51.680;5.976;2023-05-08T02:52:55;101901.66;;;13.54;100.00
66887;BME280;67239;51.680;5.976;2023-05-08T02:55:34;101906.09;;;13.54;100.00
66887;BME280;67239;51.680;5.976;2023-05-08T02:58:23;101903.41;;;13.55;100.00
66887;BME280;67239;51.680;5.976;2023-05-08T03:01:00;101902.53;;;13.55;100.00
66887;BME280;67239;51.680;5.976;2023-05-08T03:03:42;101891.97;;;13.53;100.00
66887;BME280;67239;51.680;5.976;2023-05-08T03:06:13;101899.94;;;13.53;100.00
66887;BME280;67239;51.680;5.976;2023-05-08T03:08:45;101902.63;;;13.51;100.00
66887;BME280;67239;51.680;5.976;2023-05-08T03:11:17;101900.84;;;13.52;100.00
66887;BME280;67239;51.680;5.976;2023-05-08T03:13:50;101899.97;;;13.51;100.00
66887;BME280;67239;51.680;5.976;2023-05-08T03:16:26;101904.38;;;13.51;100.00
66887;BME280;67239;51.680;5.976;2023-05-08T03:19:04;101907.09;;;13.49;100.00
66887;BME280;67239;51.680;5.976;2023-05-08T03:21:37;101906.19;;;13.49;100.00
66887;BME280;67239;51.680;5.976;2023-05-08T03:24:08;101904.44;;;13.49;100.00
66887;BME280;67239;51.680;5.976;2023-05-08T03:26:36;101893.91;;;13.48;100.00
66887;BME280;67239;51.680;5.976;2023-05-08T03:29:04;101900.00;;;13.50;100.00
66887;BME280;67239;51.680;5.976;2023-05-08T03:31:33;101898.25;;;13.49;100.00
66887;BME280;67239;51.680;5.976;2023-05-08T03:34:03;101899.16;;;13.49;100.00
66887;BME280;67239;51.680;5.976;2023-05-08T03:36:30;101899.16;;;13.49;100.00
66887;BME280;67239;51.680;5.976;2023-05-08T03:38:58;101903.56;;;13.49;100.00
66887;BME280;67239;51.680;5.976;2023-05-08T03:41:26;101907.16;;;13.46;100.00
66887;BME280;67239;51.680;5.976;2023-05-08T03:43:53;101898.34;;;13.46;100.00
66887;BME280;67239;51.680;5.976;2023-05-08T03:46:22;101902.75;;;13.47;100.00
66887;BME280;67239;51.680;5.976;2023-05-08T03:48:52;101902.75;;;13.45;100.00
66887;BME280;67239;51.680;5.976;2023-05-08T03:51:20;101905.41;;;13.47;100.00
66887;BME280;67239;51.680;5.976;2023-05-08T03:53:48;101895.72;;;13.46;100.00
66887;BME280;67239;51.680;5.976;2023-05-08T03:56:16;101905.41;;;13.47;100.00
66887;BME280;67239;51.680;5.976;2023-05-08T03:58:55;101907.16;;;13.46;100.00
66887;BME280;67239;51.680;5.976;2023-05-08T04:01:37;101909.81;;;13.46;100.00
66887;BME280;67239;51.680;5.976;2023-05-08T04:04:22;101906.31;;;13.44;100.00
66887;BME280;67239;51.680;5.976;2023-05-08T04:07:04;101901.97;;;13.42;100.00
66887;BME280;67239;51.680;5.976;2023-05-08T04:10:04;101898.50;;;13.40;100.00
66887;BME280;67239;51.680;5.976;2023-05-08T04:13:02;101900.31;;;13.36;100.00
66887;BME280;67239;51.680;5.976;2023-05-08T04:15:51;101903.03;;;13.34;100.00
66887;BME280;67239;51.680;5.976;2023-05-08T04:18:46;101892.44;;;13.33;100.00
66887;BME280;67239;51.680;5.976;2023-05-08T04:21:22;101893.25;;;13.36;100.00
66887;BME280;67239;51.680;5.976;2023-05-08T04:23:55;101897.63;;;13.39;100.00
66887;BME280;67239;51.680;5.976;2023-05-08T04:26:24;101895.84;;;13.40;100.00
66887;BME280;67239;51.680;5.976;2023-05-08T04:28:54;101898.47;;;13.41;100.00
66887;BME280;67239;51.680;5.976;2023-05-08T04:31:23;101897.56;;;13.42;100.00
66887;BME280;67239;51.680;5.976;2023-05-08T04:33:51;101901.97;;;13.42;100.00
66887;BME280;67239;51.680;5.976;2023-05-08T04:36:20;101901.94;;;13.43;100.00
66887;BME280;67239;51.680;5.976;2023-05-08T04:38:47;101908.94;;;13.46;100.00
66887;BME280;67239;51.680;5.976;2023-05-08T04:41:14;101907.16;;;13.46;100.00
66887;BME280;67239;51.680;5.976;2023-05-08T04:43:42;101912.34;;;13.51;100.00
66887;BME280;67239;51.680;5.976;2023-05-08T04:46:10;101915.75;;;13.56;100.00
66887;BME280;67239;51.680;5.976;2023-05-08T04:48:38;101917.41;;;13.60;100.00
66887;BME280;67239;51.680;5.976;2023-05-08T04:51:05;101921.72;;;13.64;100.00
66887;BME280;67239;51.680;5.976;2023-05-08T04:53:32;101925.09;;;13.71;100.00
66887;BME280;67239;51.680;5.976;2023-05-08T04:56:00;101928.53;;;13.75;100.00
66887;BME280;67239;51.680;5.976;2023-05-08T04:58:28;101931.09;;;13.78;100.00
66887;BME280;67239;51.680;5.976;2023-05-08T05:00:56;101927.50;;;13.80;100.00
66887;BME280;67239;51.680;5.976;2023-05-08T05:03:27;101922.13;;;13.84;100.00
66887;BME280;67239;51.680;5.976;2023-05-08T05:05:58;101922.00;;;13.88;100.00
66887;BME280;67239;51.680;5.976;2023-05-08T05:08:26;101930.75;;;13.90;100.00
66887;BME280;67239;51.680;5.976;2023-05-08T05:10:54;101940.38;;;13.94;100.00
66887;BME280;67239;51.680;5.976;2023-05-08T05:13:22;101942.03;;;13.98;100.00
66887;BME280;67239;51.680;5.976;2023-05-08T05:15:49;101937.47;;;14.04;100.00
66887;BME280;67239;51.680;5.976;2023-05-08T05:18:20;101940.06;;;14.05;100.00
66887;BME280;67239;51.680;5.976;2023-05-08T05:20:49;101949.75;;;14.06;100.00
66887;BME280;67239;51.680;5.976;2023-05-08T05:23:16;101941.78;;;14.08;100.00
66887;BME280;67239;51.680;5.976;2023-05-08T05:25:44;101941.78;;;14.08;100.00
66887;BME280;67239;51.680;5.976;2023-05-08T05:28:12;101948.72;;;14.12;100.00
66887;BME280;67239;51.680;5.976;2023-05-08T05:30:39;101941.59;;;14.14;100.00
66887;BME280;67239;51.680;5.976;2023-05-08T05:33:06;101946.72;;;14.20;100.00
66887;BME280;67239;51.680;5.976;2023-05-08T05:35:34;101952.78;;;14.25;100.00
66887;BME280;67239;51.680;5.976;2023-05-08T05:38:01;101945.53;;;14.32;100.00
66887;BME280;67239;51.680;5.976;2023-05-08T05:40:28;101955.91;;;14.40;100.00
66887;BME280;67239;51.680;5.976;2023-05-08T05:42:55;101958.38;;;14.46;100.00
66887;BME280;67239;51.680;5.976;2023-05-08T05:45:22;101942.41;;;14.49;100.00
66887;BME280;67239;51.680;5.976;2023-05-08T05:47:49;101960.72;;;14.57;100.00
66887;BME280;67239;51.680;5.976;2023-05-08T05:50:21;101962.25;;;14.66;100.00
66887;BME280;67239;51.680;5.976;2023-05-08T05:52:49;101959.47;;;14.70;100.00
66887;BME280;67239;51.680;5.976;2023-05-08T05:55:16;101961.94;;;14.77;100.00
66887;BME280;67239;51.680;5.976;2023-05-08T05:57:45;101966.06;;;14.87;100.00
66887;BME280;67239;51.680;5.976;2023-05-08T06:00:13;101964.06;;;14.95;100.00
66887;BME280;67239;51.680;5.976;2023-05-08T06:02:47;101966.31;;;15.07;100.00
66887;BME280;67239;51.680;5.976;2023-05-08T06:05:16;101972.06;;;15.22;100.00
66887;BME280;67239;51.680;5.976;2023-05-08T06:07:44;101971.78;;;15.31;100.00
66887;BME280;67239;51.680;5.976;2023-05-08T06:10:12;101976.84;;;15.39;100.00
66887;BME280;67239;51.680;5.976;2023-05-08T06:12:39;101974.94;;;15.43;100.00
66887;BME280;67239;51.680;5.976;2023-05-08T06:15:07;101975.72;;;15.46;100.00
66887;BME280;67239;51.680;5.976;2023-05-08T06:17:35;101976.47;;;15.50;100.00
66887;BME280;67239;51.680;5.976;2023-05-08T06:20:03;101980.56;;;15.60;100.00
66887;BME280;67239;51.680;5.976;2023-05-08T06:22:30;101978.50;;;15.68;100.00
66887;BME280;67239;51.680;5.976;2023-05-08T06:24:57;101972.03;;;15.77;100.00
66887;BME280;67239;51.680;5.976;2023-05-08T06:27:25;101976.97;;;15.90;100.00
66887;BME280;67239;51.680;5.976;2023-05-08T06:29:52;101987.38;;;15.96;100.00
66887;BME280;67239;51.680;5.976;2023-05-08T06:32:20;101980.06;;;16.03;100.00
66887;BME280;67239;51.680;5.976;2023-05-08T06:34:48;101983.28;;;16.12;100.00
66887;BME280;67239;51.680;5.976;2023-05-08T06:37:15;101984.78;;;16.20;100.00
66887;BME280;67239;51.680;5.976;2023-05-08T06:39:42;101983.69;;;16.25;100.00
66887;BME280;67239;51.680;5.976;2023-05-08T06:42:09;101973.91;;;16.26;100.00
66887;BME280;67239;51.680;5.976;2023-05-08T06:44:38;101980.06;;;16.28;100.00
66887;BME280;67239;51.680;5.976;2023-05-08T06:47:06;101974.72;;;16.28;100.00
66887;BME280;67239;51.680;5.976;2023-05-08T06:49:37;101977.16;;;16.34;100.00
66887;BME280;67239;51.680;5.976;2023-05-08T06:52:04;101973.22;;;16.44;100.00
66887;BME280;67239;51.680;5.976;2023-05-08T06:54:31;101982.59;;;16.55;100.00
66887;BME280;67239;51.680;5.976;2023-05-08T06:56:58;101980.47;;;16.65;100.00
66887;BME280;67239;51.680;5.976;2023-05-08T06:59:25;101977.63;;;16.69;98.93
66887;BME280;67239;51.680;5.976;2023-05-08T07:01:52;101980.06;;;16.75;99.39
66887;BME280;67239;51.680;5.976;2023-05-08T07:04:19;101989.09;;;16.95;100.00
66887;BME280;67239;51.680;5.976;2023-05-08T07:06:46;101983.75;;;17.19;100.00
66887;BME280;67239;51.680;5.976;2023-05-08T07:09:13;101983.72;;;17.41;99.94
66887;BME280;67239;51.680;5.976;2023-05-08T07:11:41;101989.06;;;17.63;99.83
66887;BME280;67239;51.680;5.976;2023-05-08T07:14:09;101988.94;;;17.87;99.33
66887;BME280;67239;51.680;5.976;2023-05-08T07:16:36;101991.72;;;18.06;98.61
66887;BME280;67239;51.680;5.976;2023-05-08T07:19:03;101991.91;;;18.22;98.15
66887;BME280;67239;51.680;5.976;2023-05-08T07:21:31;101984.22;;;18.35;97.87
66887;BME280;67239;51.680;5.976;2023-05-08T07:23:58;101981.06;;;18.46;97.73
66887;BME280;67239;51.680;5.976;2023-05-08T07:26:25;101985.78;;;18.60;97.01
66887;BME280;67239;51.680;5.976;2023-05-08T07:28:52;101988.94;;;18.68;96.15
66887;BME280;67239;51.680;5.976;2023-05-08T07:31:20;101990.38;;;18.75;94.87
66887;BME280;67239;51.680;5.976;2023-05-08T07:33:48;101986.88;;;18.75;92.91
66887;BME280;67239;51.680;5.976;2023-05-08T07:36:15;101988.81;;;18.71;92.39
66887;BME280;67239;51.680;5.976;2023-05-08T07:38:42;101988.88;;;18.70;93.19
66887;BME280;67239;51.680;5.976;2023-05-08T07:41:09;101987.84;;;18.72;93.54
66887;BME280;67239;51.680;5.976;2023-05-08T07:43:36;101991.28;;;18.76;92.71
66887;BME280;67239;51.680;5.976;2023-05-08T07:46:04;101977.53;;;18.84;93.87
66887;BME280;67239;51.680;5.976;2023-05-08T07:48:31;101979.84;;;18.91;93.79
66887;BME280;67239;51.680;5.976;2023-05-08T07:50:58;101982.91;;;19.03;94.46
66887;BME280;67239;51.680;5.976;2023-05-08T07:53:25;101982.53;;;19.11;94.08
66887;BME280;67239;51.680;5.976;2023-05-08T07:55:53;101983.97;;;19.18;92.53
66887;BME280;67239;51.680;5.976;2023-05-08T07:58:20;101986.09;;;19.29;91.98
66887;BME280;67239;51.680;5.976;2023-05-08T08:00:49;101983.06;;;19.36;90.20
66887;BME280;67239;51.680;5.976;2023-05-08T08:03:16;101986.75;;;19.34;90.77
66887;BME280;67239;51.680;5.976;2023-05-08T08:05:44;101991.09;;;19.36;90.85
66887;BME280;67239;51.680;5.976;2023-05-08T08:08:11;101982.22;;;19.36;90.41
66887;BME280;67239;51.680;5.976;2023-05-08T08:10:38;101995.34;;;19.40;90.92
66887;BME280;67239;51.680;5.976;2023-05-08T08:13:05;101995.41;;;19.39;90.99
66887;BME280;67239;51.680;5.976;2023-05-08T08:15:32;102002.81;;;19.34;90.27
66887;BME280;67239;51.680;5.976;2023-05-08T08:17:59;102007.66;;;19.26;88.12
66887;BME280;67239;51.680;5.976;2023-05-08T08:20:27;102005.88;;;19.07;86.10
66887;BME280;67239;51.680;5.976;2023-05-08T08:22:54;102000.28;;;18.92;88.35
66887;BME280;67239;51.680;5.976;2023-05-08T08:25:21;102005.94;;;18.86;89.05
66887;BME280;67239;51.680;5.976;2023-05-08T08:27:48;102002.00;;;18.74;87.80
66887;BME280;67239;51.680;5.976;2023-05-08T08:30:15;102000.78;;;18.62;87.93
66887;BME280;67239;51.680;5.976;2023-05-08T08:32:44;101995.78;;;18.55;88.92
66887;BME280;67239;51.680;5.976;2023-05-08T08:35:12;101995.28;;;18.46;89.15
66887;BME280;67239;51.680;5.976;2023-05-08T08:37:40;101982.84;;;18.45;90.37
66887;BME280;67239;51.680;5.976;2023-05-08T08:40:08;101986.03;;;18.54;91.20
66887;BME280;67239;51.680;5.976;2023-05-08T08:42:35;101985.59;;;18.63;91.72
66887;BME280;67239;51.680;5.976;2023-05-08T08:45:03;101980.81;;;18.71;91.04
66887;BME280;67239;51.680;5.976;2023-05-08T08:47:34;101980.50;;;18.77;91.34
66887;BME280;67239;51.680;5.976;2023-05-08T08:50:04;101978.63;;;18.80;90.82
66887;BME280;67239;51.680;5.976;2023-05-08T08:52:59;101980.06;;;18.87;91.57
66887;BME280;67239;51.680;5.976;2023-05-08T08:55:36;101975.44;;;18.90;91.74
66887;BME280;67239;51.680;5.976;2023-05-08T09:00:47;101978.28;;;19.06;91.32
66887;BME280;67239;51.680;5.976;2023-05-08T09:03:16;101983.13;;;19.17;91.55
66887;BME280;67239;51.680;5.976;2023-05-08T09:05:43;101977.25;;;19.28;90.68
66887;BME280;67239;51.680;5.976;2023-05-08T09:08:11;101974.19;;;19.36;89.38
66887;BME280;67239;51.680;5.976;2023-05-08T09:10:38;101975.69;;;19.42;87.26
66887;BME280;67239;51.680;5.976;2023-05-08T09:13:06;101971.06;;;19.63;86.63
66887;BME280;67239;51.680;5.976;2023-05-08T09:15:33;101963.63;;;19.87;87.33
66887;BME280;67239;51.680;5.976;2023-05-08T09:18:01;101965.72;;;20.15;86.97
66887;BME280;67239;51.680;5.976;2023-05-08T09:20:29;101970.53;;;20.42;86.52
66887;BME280;67239;51.680;5.976;2023-05-08T09:22:56;101978.53;;;20.60;84.18
66887;BME280;67239;51.680;5.976;2023-05-08T09:25:44;101975.16;;;20.72;81.54
66887;BME280;67239;51.680;5.976;2023-05-08T09:28:20;101980.50;;;20.90;80.27
66887;BME280;67239;51.680;5.976;2023-05-08T09:30:56;101978.03;;;21.01;78.98
66887;BME280;67239;51.680;5.976;2023-05-08T09:33:26;101975.88;;;21.08;78.96
66887;BME280;67239;51.680;5.976;2023-05-08T09:35:55;101968.88;;;21.05;79.70
66887;BME280;67239;51.680;5.976;2023-05-08T09:38:33;101977.53;;;21.10;81.44
66887;BME280;67239;51.680;5.976;2023-05-08T09:41:15;101971.19;;;21.12;81.13
66887;BME280;67239;51.680;5.976;2023-05-08T09:43:43;101980.72;;;21.17;79.72
66887;BME280;67239;51.680;5.976;2023-05-08T09:46:25;101979.31;;;21.42;80.89
66887;BME280;67239;51.680;5.976;2023-05-08T09:48:58;101977.19;;;21.47;78.34
66887;BME280;67239;51.680;5.976;2023-05-08T09:51:27;101982.63;;;21.31;77.63
66887;BME280;67239;51.680;5.976;2023-05-08T09:53:57;101984.28;;;21.18;78.92
66887;BME280;67239;51.680;5.976;2023-05-08T09:56:36;101990.22;;;21.23;78.73
66887;BME280;67239;51.680;5.976;2023-05-08T09:59:26;101983.72;;;21.43;78.39
66887;BME280;67239;51.680;5.976;2023-05-08T10:01:55;101984.78;;;21.71;77.69
66887;BME280;67239;51.680;5.976;2023-05-08T10:04:33;101987.03;;;21.93;76.55
66887;BME280;67239;51.680;5.976;2023-05-08T10:07:03;101979.81;;;22.24;75.66
66887;BME280;67239;51.680;5.976;2023-05-08T10:09:30;101984.16;;;22.56;72.88
66887;BME280;67239;51.680;5.976;2023-05-08T10:12:15;101981.91;;;22.77;71.05
66887;BME280;67239;51.680;5.976;2023-05-08T10:14:42;101980.28;;;22.89;73.08
66887;BME280;67239;51.680;5.976;2023-05-08T10:17:15;101970.91;;;23.09;69.51
66887;BME280;67239;51.680;5.976;2023-05-08T10:19:57;101971.09;;;23.20;71.21
66887;BME280;67239;51.680;5.976;2023-05-08T10:22:30;101972.97;;;23.33;69.57
66887;BME280;67239;51.680;5.976;2023-05-08T10:25:01;101974.94;;;23.44;69.82
66887;BME280;67239;51.680;5.976;2023-05-08T10:27:54;101971.59;;;23.40;68.98
66887;BME280;67239;51.680;5.976;2023-05-08T10:30:29;101975.31;;;23.10;70.46
66887;BME280;67239;51.680;5.976;2023-05-08T10:32:59;101977.38;;;22.92;70.13
66887;BME280;67239;51.680;5.976;2023-05-08T10:35:38;101972.06;;;22.77;70.84
66887;BME280;67239;51.680;5.976;2023-05-08T10:38:07;101976.38;;;22.65;72.68
66887;BME280;67239;51.680;5.976;2023-05-08T10:40:36;101975.50;;;22.51;71.70
66887;BME280;67239;51.680;5.976;2023-05-08T10:43:05;101964.38;;;22.28;72.23
66887;BME280;67239;51.680;5.976;2023-05-08T10:45:33;101963.31;;;22.01;72.47
66887;BME280;67239;51.680;5.976;2023-05-08T10:53:57;101960.28;;;21.31;76.02
66887;BME280;67239;51.680;5.976;2023-05-08T10:56:30;101960.81;;;21.21;76.45
66887;BME280;67239;51.680;5.976;2023-05-08T10:58:58;101963.78;;;21.17;77.31
66887;BME280;67239;51.680;5.976;2023-05-08T11:01:25;101972.88;;;21.14;78.60
66887;BME280;67239;51.680;5.976;2023-05-08T11:03:52;101968.78;;;21.07;78.50
66887;BME280;67239;51.680;5.976;2023-05-08T11:06:43;101972.94;;;20.97;77.61
66887;BME280;67239;51.680;5.976;2023-05-08T11:09:21;101972.78;;;20.84;78.50
66887;BME280;67239;51.680;5.976;2023-05-08T11:12:06;101971.53;;;20.73;77.51
66887;BME280;67239;51.680;5.976;2023-05-08T11:14:43;101965.63;;;20.51;78.02
66887;BME280;67239;51.680;5.976;2023-05-08T11:17:24;101966.00;;;20.27;78.56
66887;BME280;67239;51.680;5.976;2023-05-08T11:19:59;101973.53;;;20.02;79.60
66887;BME280;67239;51.680;5.976;2023-05-08T11:22:31;101963.56;;;19.89;80.56
66887;BME280;67239;51.680;5.976;2023-05-08T11:25:09;101965.47;;;19.85;81.77
66887;BME280;67239;51.680;5.976;2023-05-08T11:38:24;101944.78;;;19.71;85.00
66887;BME280;67239;51.680;5.976;2023-05-08T11:41:04;101941.38;;;19.86;84.10
66887;BME280;67239;51.680;5.976;2023-05-08T11:46:46;101938.94;;;20.15;84.02
66887;BME280;67239;51.680;5.976;2023-05-08T11:49:23;101941.03;;;20.26;82.71
66887;BME280;67239;51.680;5.976;2023-05-08T11:51:57;101936.22;;;20.33;82.27
66887;BME280;67239;51.680;5.976;2023-05-08T11:54:28;101940.28;;;20.40;83.70
66887;BME280;67239;51.680;5.976;2023-05-08T11:56:56;101931.59;;;20.53;84.15
66887;BME280;67239;51.680;5.976;2023-05-08T11:59:25;101942.56;;;20.64;80.35
66887;BME280;67239;51.680;5.976;2023-05-08T12:01:52;101936.19;;;20.83;81.09
66887;BME280;67239;51.680;5.976;2023-05-08T12:04:42;101937.88;;;21.32;81.74
66887;BME280;67239;51.680;5.976;2023-05-08T12:07:11;101942.66;;;21.57;80.86
66887;BME280;67239;51.680;5.976;2023-05-08T12:09:38;101945.81;;;21.80;79.69
66887;BME280;67239;51.680;5.976;2023-05-08T12:12:05;101946.03;;;21.91;78.78
66887;BME280;67239;51.680;5.976;2023-05-08T12:14:33;101946.25;;;22.02;78.77
66887;BME280;67239;51.680;5.976;2023-05-08T12:17:01;101938.84;;;22.21;79.68
66887;BME280;67239;51.680;5.976;2023-05-08T12:19:28;101932.31;;;22.39;76.40
66887;BME280;67239;51.680;5.976;2023-05-08T12:21:55;101939.25;;;22.58;76.22
66887;BME280;67239;51.680;5.976;2023-05-08T12:24:23;101923.16;;;22.85;75.75
66887;BME280;67239;51.680;5.976;2023-05-08T12:26:53;101929.25;;;23.02;74.47
66887;BME280;67239;51.680;5.976;2023-05-08T12:29:23;101929.88;;;23.20;72.51
66887;BME280;67239;51.680;5.976;2023-05-08T12:31:53;101924.94;;;23.26;70.83
66887;BME280;67239;51.680;5.976;2023-05-08T12:34:21;101916.56;;;23.31;71.92
66887;BME280;67239;51.680;5.976;2023-05-08T12:37:00;101919.63;;;23.39;73.53
66887;BME280;67239;51.680;5.976;2023-05-08T12:39:34;101913.59;;;23.49;72.57
66887;BME280;67239;51.680;5.976;2023-05-08T12:42:03;101915.34;;;23.50;70.46
66887;BME280;67239;51.680;5.976;2023-05-08T12:44:30;101910.03;;;23.48;71.69
66887;BME280;67239;51.680;5.976;2023-05-08T12:46:57;101908.75;;;23.54;72.15
66887;BME280;67239;51.680;5.976;2023-05-08T12:49:26;101910.41;;;23.69;70.67
66887;BME280;67239;51.680;5.976;2023-05-08T12:52:08;101903.63;;;23.77;70.38
66887;BME280;67239;51.680;5.976;2023-05-08T12:54:39;101909.19;;;23.86;71.87
66887;BME280;67239;51.680;5.976;2023-05-08T12:57:15;101900.22;;;24.00;68.73
66887;BME280;67239;51.680;5.976;2023-05-08T12:59:46;101897.72;;;24.10;68.32
66887;BME280;67239;51.680;5.976;2023-05-08T13:02:20;101901.16;;;24.12;67.91
66887;BME280;67239;51.680;5.976;2023-05-08T13:04:53;101907.28;;;24.01;67.25
66887;BME280;67239;51.680;5.976;2023-05-08T13:07:30;101896.00;;;23.96;66.47
66887;BME280;67239;51.680;5.976;2023-05-08T13:10:00;101895.41;;;23.91;66.61
66887;BME280;67239;51.680;5.976;2023-05-08T13:12:30;101893.59;;;23.92;67.62
66887;BME280;67239;51.680;5.976;2023-05-08T13:14:57;101886.69;;;23.87;67.43
66887;BME280;67239;51.680;5.976;2023-05-08T13:17:24;101888.44;;;23.88;68.16
66887;BME280;67239;51.680;5.976;2023-05-08T13:19:52;101885.84;;;23.87;68.21
66887;BME280;67239;51.680;5.976;2023-05-08T13:22:19;101895.84;;;23.85;67.31
66887;BME280;67239;51.680;5.976;2023-05-08T13:24:48;101872.28;;;23.88;68.21
66887;BME280;67239;51.680;5.976;2023-05-08T13:27:15;101873.16;;;24.02;68.33
66887;BME280;67239;51.680;5.976;2023-05-08T13:29:43;101874.75;;;24.04;65.21
66887;BME280;67239;51.680;5.976;2023-05-08T13:32:10;101872.06;;;24.04;65.41
66887;BME280;67239;51.680;5.976;2023-05-08T13:34:37;101875.41;;;24.21;64.97
66887;BME280;67239;51.680;5.976;2023-05-08T13:37:15;101874.94;;;24.27;62.59
66887;BME280;67239;51.680;5.976;2023-05-08T13:39:42;101877.38;;;24.43;62.39
66887;BME280;67239;51.680;5.976;2023-05-08T13:42:09;101878.25;;;24.44;62.77